sensor_id;sensor_type;location;lat;lon;timestamp;temperature;humidity
23471;DHT22;11908;50.806;4.424;2023-09-30T00:00:26;13.60;99.90
23471;DHT22;11908;50.806;4.424;2023-09-30T00:02:52;13.60;99.90
23471;DHT22;11908;50.806;4.424;2023-09-30T00:05:17;13.60;99.90
23471;DHT22;11908;50.806;4.424;2023-09-30T00:07:45;13.60;99.90
23471;DHT22;11908;50.806;4.424;2023-09-30T00:10:11;13.50;99.90
23471;DHT22;11908;50.806;4.424;2023-09-30T00:12:37;13.50;99.90
23471;DHT22;11908;50.806;4.424;2023-09-30T00:15:03;13.50;99.90
23471;DHT22;11908;50.806;4.424;2023-09-30T00:17:29;13.50;99.90
23471;DHT22;11908;50.806;4.424;2023-09-30T00:19:55;13.50;99.90
23471;DHT22;11908;50.806;4.424;2023-09-30T00:22:22;13.50;99.90
23471;DHT22;11908;50.806;4.424;2023-09-30T00:24:48;13.50;99.90
23471;DHT22;11908;50.806;4.424;2023-09-30T00:27:13;13.50;99.90
23471;DHT22;11908;50.806;4.424;2023-09-30T00:29:39;13.40;99.90
23471;DHT22;11908;50.806;4.424;2023-09-30T00:32:05;13.40;99.90
23471;DHT22;11908;50.806;4.424;2023-09-30T00:34:35;13.40;99.90
23471;DHT22;11908;50.806;4.424;2023-09-30T00:37:00;13.40;99.90
23471;DHT22;11908;50.806;4.424;2023-09-30T00:39:26;13.40;99.90
23471;DHT22;11908;50.806;4.424;2023-09-30T00:41:58;13.30;99.90
23471;DHT22;11908;50.806;4.424;2023-09-30T00:44:26;13.30;99.90
23471;DHT22;11908;50.806;4.424;2023-09-30T00:46:52;13.40;99.90
23471;DHT22;11908;50.806;4.424;2023-09-30T00:49:18;13.40;99.90
23471;DHT22;11908;50.806;4.424;2023-09-30T00:51:45;13.40;99.90
23471;DHT22;11908;50.806;4.424;2023-09-30T00:54:11;13.40;99.90
23471;DHT22;11908;50.806;4.424;2023-09-30T00:56:47;13.40;99.90
23471;DHT22;11908;50.806;4.424;2023-09-30T00:59:14;13.40;99.90
23471;DHT22;11908;50.806;4.424;2023-09-30T01:01:41;13.30;99.90
23471;DHT22;11908;50.806;4.424;2023-09-30T01:04:09;13.40;99.90
23471;DHT22;11908;50.806;4.424;2023-09-30T01:06:35;13.40;99.90
23471;DHT22;11908;50.806;4.424;2023-09-30T01:09:00;13.50;99.90
23471;DHT22;11908;50.806;4.424;2023-09-30T01:11:26;13.50;99.90
23471;DHT22;11908;50.806;4.424;2023-09-30T01:13:52;13.50;99.90
23471;DHT22;11908;50.806;4.424;2023-09-30T01:16:17;13.50;99.90
23471;DHT22;11908;50.806;4.424;2023-09-30T01:18:43;13.30;99.90
23471;DHT22;11908;50.806;4.424;2023-09-30T01:21:09;13.20;99.90
23471;DHT22;11908;50.806;4.424;2023-09-30T01:23:36;13.20;99.90
23471;DHT22;11908;50.806;4.424;2023-09-30T01:26:06;13.20;99.90
23471;DHT22;11908;50.806;4.424;2023-09-30T01:28:34;13.20;99.90
23471;DHT22;11908;50.806;4.424;2023-09-30T01:30:59;13.30;99.90
23471;DHT22;11908;50.806;4.424;2023-09-30T01:33:26;13.30;99.90
23471;DHT22;11908;50.806;4.424;2023-09-30T01:35:52;13.40;99.90
23471;DHT22;11908;50.806;4.424;2023-09-30T01:38:18;13.30;99.90
23471;DHT22;11908;50.806;4.424;2023-09-30T01:40:44;13.30;99.90
23471;DHT22;11908;50.806;4.424;2023-09-30T01:43:09;13.30;99.90
23471;DHT22;11908;50.806;4.424;2023-09-30T01:45:39;13.30;99.90
23471;DHT22;11908;50.806;4.424;2023-09-30T01:48:04;13.30;99.90
23471;DHT22;11908;50.806;4.424;2023-09-30T01:50:30;13.30;99.90
23471;DHT22;11908;50.806;4.424;2023-09-30T01:52:56;13.30;99.90
23471;DHT22;11908;50.806;4.424;2023-09-30T01:55:22;13.20;99.90
23471;DHT22;11908;50.806;4.424;2023-09-30T01:57:48;13.20;99.90
23471;DHT22;11908;50.806;4.424;2023-09-30T02:00:14;13.20;99.90
23471;DHT22;11908;50.806;4.424;2023-09-30T02:02:40;13.20;99.90
23471;DHT22;11908;50.806;4.424;2023-09-30T02:05:05;13.20;99.90
23471;DHT22;11908;50.806;4.424;2023-09-30T02:07:34;13.30;99.90
23471;DHT22;11908;50.806;4.424;2023-09-30T02:10:00;13.30;99.90
23471;DHT22;11908;50.806;4.424;2023-09-30T02:12:27;13.40;99.90
23471;DHT22;11908;50.806;4.424;2023-09-30T02:14:54;13.40;99.90
23471;DHT22;11908;50.806;4.424;2023-09-30T02:17:19;13.30;99.90
23471;DHT22;11908;50.806;4.424;2023-09-30T02:19:45;13.40;99.90
23471;DHT22;11908;50.806;4.424;2023-09-30T02:22:12;13.30;99.90
23471;DHT22;11908;50.806;4.424;2023-09-30T02:24:38;13.30;99.90
23471;DHT22;11908;50.806;4.424;2023-09-30T02:27:05;13.30;99.90
23471;DHT22;11908;50.806;4.424;2023-09-30T02:29:31;13.20;99.90
23471;DHT22;11908;50.806;4.424;2023-09-30T02:31:57;13.10;99.90
23471;DHT22;11908;50.806;4.424;2023-09-30T02:34:23;13.10;99.90
23471;DHT22;11908;50.806;4.424;2023-09-30T02:36:49;13.00;99.90
23471;DHT22;11908;50.806;4.424;2023-09-30T02:39:15;13.00;99.90
23471;DHT22;11908;50.806;4.424;2023-09-30T02:41:42;13.00;99.90
23471;DHT22;11908;50.806;4.424;2023-09-30T02:44:08;13.00;99.90
23471;DHT22;11908;50.806;4.424;2023-09-30T02:46:33;13.00;99.90
23471;DHT22;11908;50.806;4.424;2023-09-30T02:49:01;13.10;99.90
23471;DHT22;11908;50.806;4.424;2023-09-30T02:51:27;13.00;99.90
23471;DHT22;11908;50.806;4.424;2023-09-30T02:53:54;12.90;99.90
23471;DHT22;11908;50.806;4.424;2023-09-30T02:56:20;12.90;99.90
23471;DHT22;11908;50.806;4.424;2023-09-30T02:58:46;12.80;99.90
23471;DHT22;11908;50.806;4.424;2023-09-30T03:01:15;12.80;99.90
23471;DHT22;11908;50.806;4.424;2023-09-30T03:03:44;12.80;99.90
23471;DHT22;11908;50.806;4.424;2023-09-30T03:06:12;12.80;99.90
23471;DHT22;11908;50.806;4.424;2023-09-30T03:08:39;12.80;99.90
23471;DHT22;11908;50.806;4.424;2023-09-30T03:11:06;12.80;99.90
23471;DHT22;11908;50.806;4.424;2023-09-30T03:13:33;12.80;99.90
23471;DHT22;11908;50.806;4.424;2023-09-30T03:15:59;12.80;99.90
23471;DHT22;11908;50.806;4.424;2023-09-30T03:18:27;12.90;99.90
23471;DHT22;11908;50.806;4.424;2023-09-30T03:21:02;12.80;99.90
23471;DHT22;11908;50.806;4.424;2023-09-30T03:23:34;12.80;99.90
23471;DHT22;11908;50.806;4.424;2023-09-30T03:26:00;12.80;99.90
23471;DHT22;11908;50.806;4.424;2023-09-30T03:28:26;12.80;99.90
23471;DHT22;11908;50.806;4.424;2023-09-30T03:30:52;12.80;99.90
23471;DHT22;11908;50.806;4.424;2023-09-30T03:33:18;12.80;99.90
23471;DHT22;11908;50.806;4.424;2023-09-30T03:35:43;12.80;99.90
23471;DHT22;11908;50.806;4.424;2023-09-30T03:38:10;12.80;99.90
23471;DHT22;11908;50.806;4.424;2023-09-30T03:40:39;12.80;99.90
23471;DHT22;11908;50.806;4.424;2023-09-30T03:43:05;12.80;99.90
23471;DHT22;11908;50.806;4.424;2023-09-30T03:45:31;12.80;99.90
23471;DHT22;11908;50.806;4.424;2023-09-30T03:48:01;12.70;99.90
23471;DHT22;11908;50.806;4.424;2023-09-30T03:50:28;12.70;99.90
23471;DHT22;11908;50.806;4.424;2023-09-30T03:53:01;12.60;99.90
23471;DHT22;11908;50.806;4.424;2023-09-30T03:55:27;12.60;99.90
23471;DHT22;11908;50.806;4.424;2023-09-30T03:57:55;12.60;99.90
23471;DHT22;11908;50.806;4.424;2023-09-30T04:00:21;12.50;99.90
23471;DHT22;11908;50.806;4.424;2023-09-30T04:02:47;12.50;99.90
23471;DHT22;11908;50.806;4.424;2023-09-30T04:05:22;12.50;99.90
23471;DHT22;11908;50.806;4.424;2023-09-30T04:07:58;12.40;99.90
23471;DHT22;11908;50.806;4.424;2023-09-30T04:10:24;12.40;99.90
23471;DHT22;11908;50.806;4.424;2023-09-30T04:12:51;12.40;99.90
23471;DHT22;11908;50.806;4.424;2023-09-30T04:15:18;12.40;99.90
23471;DHT22;11908;50.806;4.424;2023-09-30T04:17:44;12.40;99.90
23471;DHT22;11908;50.806;4.424;2023-09-30T04:20:10;12.30;99.90
23471;DHT22;11908;50.806;4.424;2023-09-30T04:22:41;12.30;99.90
23471;DHT22;11908;50.806;4.424;2023-09-30T04:25:07;12.30;99.90
23471;DHT22;11908;50.806;4.424;2023-09-30T04:27:35;12.30;99.90
23471;DHT22;11908;50.806;4.424;2023-09-30T04:30:02;12.30;99.90
23471;DHT22;11908;50.806;4.424;2023-09-30T04:32:37;12.30;99.90
23471;DHT22;11908;50.806;4.424;2023-09-30T04:35:04;12.30;99.90
23471;DHT22;11908;50.806;4.424;2023-09-30T04:37:30;12.30;99.90
23471;DHT22;11908;50.806;4.424;2023-09-30T04:39:56;12.20;99.90
23471;DHT22;11908;50.806;4.424;2023-09-30T04:42:23;12.20;99.90
23471;DHT22;11908;50.806;4.424;2023-09-30T04:44:51;12.20;99.90
23471;DHT22;11908;50.806;4.424;2023-09-30T04:47:17;12.20;99.90
23471;DHT22;11908;50.806;4.424;2023-09-30T04:49:44;12.20;99.90
23471;DHT22;11908;50.806;4.424;2023-09-30T04:52:10;12.20;99.90
23471;DHT22;11908;50.806;4.424;2023-09-30T04:54:35;12.20;99.90
23471;DHT22;11908;50.806;4.424;2023-09-30T04:57:01;12.20;99.90
23471;DHT22;11908;50.806;4.424;2023-09-30T04:59:27;12.20;99.90
23471;DHT22;11908;50.806;4.424;2023-09-30T05:01:53;12.10;99.90
23471;DHT22;11908;50.806;4.424;2023-09-30T05:04:20;12.20;99.90
23471;DHT22;11908;50.806;4.424;2023-09-30T05:06:45;12.20;99.90
23471;DHT22;11908;50.806;4.424;2023-09-30T05:09:11;12.20;99.90
23471;DHT22;11908;50.806;4.424;2023-09-30T05:11:37;12.20;99.90
23471;DHT22;11908;50.806;4.424;2023-09-30T05:14:03;12.10;99.90
23471;DHT22;11908;50.806;4.424;2023-09-30T05:16:30;12.10;99.90
23471;DHT22;11908;50.806;4.424;2023-09-30T05:18:57;12.10;99.90
23471;DHT22;11908;50.806;4.424;2023-09-30T05:21:23;12.10;99.90
23471;DHT22;11908;50.806;4.424;2023-09-30T05:23:48;12.00;99.90
23471;DHT22;11908;50.806;4.424;2023-09-30T05:26:15;12.10;99.90
23471;DHT22;11908;50.806;4.424;2023-09-30T05:28:40;12.10;99.90
23471;DHT22;11908;50.806;4.424;2023-09-30T05:31:08;12.10;99.90
23471;DHT22;11908;50.806;4.424;2023-09-30T05:33:34;12.10;99.90
23471;DHT22;11908;50.806;4.424;2023-09-30T05:36:01;12.00;99.90
23471;DHT22;11908;50.806;4.424;2023-09-30T05:38:28;12.10;99.90
23471;DHT22;11908;50.806;4.424;2023-09-30T05:40:56;12.10;99.90
23471;DHT22;11908;50.806;4.424;2023-09-30T05:43:24;12.10;99.90
23471;DHT22;11908;50.806;4.424;2023-09-30T05:45:50;12.00;99.90
23471;DHT22;11908;50.806;4.424;2023-09-30T05:48:20;12.10;99.90
23471;DHT22;11908;50.806;4.424;2023-09-30T05:50:46;12.20;99.90
23471;DHT22;11908;50.806;4.424;2023-09-30T05:53:12;12.20;99.90
23471;DHT22;11908;50.806;4.424;2023-09-30T05:55:40;12.20;99.90
23471;DHT22;11908;50.806;4.424;2023-09-30T05:58:13;12.20;99.90
23471;DHT22;11908;50.806;4.424;2023-09-30T06:00:42;12.20;99.90
23471;DHT22;11908;50.806;4.424;2023-09-30T06:03:08;12.30;99.90
23471;DHT22;11908;50.806;4.424;2023-09-30T06:05:41;12.30;99.90
23471;DHT22;11908;50.806;4.424;2023-09-30T06:08:08;12.30;99.90
23471;DHT22;11908;50.806;4.424;2023-09-30T06:10:36;12.40;99.90
23471;DHT22;11908;50.806;4.424;2023-09-30T06:13:04;12.50;99.90
23471;DHT22;11908;50.806;4.424;2023-09-30T06:15:29;12.60;99.90
23471;DHT22;11908;50.806;4.424;2023-09-30T06:17:57;12.60;99.90
23471;DHT22;11908;50.806;4.424;2023-09-30T06:20:23;12.60;99.90
23471;DHT22;11908;50.806;4.424;2023-09-30T06:22:51;12.60;99.90
23471;DHT22;11908;50.806;4.424;2023-09-30T06:25:19;12.70;99.90
23471;DHT22;11908;50.806;4.424;2023-09-30T06:27:47;12.70;99.90
23471;DHT22;11908;50.806;4.424;2023-09-30T06:30:14;12.70;99.90
23471;DHT22;11908;50.806;4.424;2023-09-30T06:32:41;12.80;99.90
23471;DHT22;11908;50.806;4.424;2023-09-30T06:35:08;12.90;99.90
23471;DHT22;11908;50.806;4.424;2023-09-30T06:37:39;13.00;99.90
23471;DHT22;11908;50.806;4.424;2023-09-30T06:40:09;13.10;99.90
23471;DHT22;11908;50.806;4.424;2023-09-30T06:42:37;13.10;99.90
23471;DHT22;11908;50.806;4.424;2023-09-30T06:45:03;13.20;99.90
23471;DHT22;11908;50.806;4.424;2023-09-30T06:47:39;13.40;99.90
23471;DHT22;11908;50.806;4.424;2023-09-30T06:50:09;13.50;99.90
23471;DHT22;11908;50.806;4.424;2023-09-30T06:52:38;13.60;99.90
23471;DHT22;11908;50.806;4.424;2023-09-30T06:55:05;13.60;99.90
23471;DHT22;11908;50.806;4.424;2023-09-30T06:57:35;13.80;99.90
23471;DHT22;11908;50.806;4.424;2023-09-30T07:00:08;14.00;99.90
23471;DHT22;11908;50.806;4.424;2023-09-30T07:02:35;14.20;99.90
23471;DHT22;11908;50.806;4.424;2023-09-30T07:05:05;14.40;99.90
23471;DHT22;11908;50.806;4.424;2023-09-30T07:07:31;14.60;99.90
23471;DHT22;11908;50.806;4.424;2023-09-30T07:09:56;14.70;99.90
23471;DHT22;11908;50.806;4.424;2023-09-30T07:12:22;14.70;99.90
23471;DHT22;11908;50.806;4.424;2023-09-30T07:14:47;14.80;99.90
23471;DHT22;11908;50.806;4.424;2023-09-30T07:17:13;15.00;99.90
23471;DHT22;11908;50.806;4.424;2023-09-30T07:19:39;15.10;99.90
23471;DHT22;11908;50.806;4.424;2023-09-30T07:22:05;15.10;99.90
23471;DHT22;11908;50.806;4.424;2023-09-30T07:24:31;15.30;99.90
23471;DHT22;11908;50.806;4.424;2023-09-30T07:26:56;15.30;99.90
23471;DHT22;11908;50.806;4.424;2023-09-30T07:29:22;15.30;99.90
23471;DHT22;11908;50.806;4.424;2023-09-30T07:31:48;15.40;99.90
23471;DHT22;11908;50.806;4.424;2023-09-30T07:34:16;15.40;99.90
23471;DHT22;11908;50.806;4.424;2023-09-30T07:36:41;15.50;99.90
23471;DHT22;11908;50.806;4.424;2023-09-30T07:39:08;15.60;99.90
23471;DHT22;11908;50.806;4.424;2023-09-30T07:41:37;15.60;99.90
23471;DHT22;11908;50.806;4.424;2023-09-30T07:44:03;15.70;99.90
23471;DHT22;11908;50.806;4.424;2023-09-30T07:46:29;15.70;99.90
23471;DHT22;11908;50.806;4.424;2023-09-30T07:48:54;15.80;99.90
23471;DHT22;11908;50.806;4.424;2023-09-30T07:51:20;15.80;99.90
23471;DHT22;11908;50.806;4.424;2023-09-30T07:53:46;15.90;99.90
23471;DHT22;11908;50.806;4.424;2023-09-30T07:56:12;15.90;99.90
23471;DHT22;11908;50.806;4.424;2023-09-30T07:58:38;16.00;99.90
23471;DHT22;11908;50.806;4.424;2023-09-30T08:01:04;16.10;99.90
23471;DHT22;11908;50.806;4.424;2023-09-30T08:03:30;16.10;99.90
23471;DHT22;11908;50.806;4.424;2023-09-30T08:05:56;16.30;99.90
23471;DHT22;11908;50.806;4.424;2023-09-30T08:08:21;16.20;99.90
23471;DHT22;11908;50.806;4.424;2023-09-30T08:10:49;16.30;99.90
23471;DHT22;11908;50.806;4.424;2023-09-30T08:13:15;16.30;99.90
23471;DHT22;11908;50.806;4.424;2023-09-30T08:15:42;16.80;99.90
23471;DHT22;11908;50.806;4.424;2023-09-30T08:18:08;17.50;99.90
23471;DHT22;11908;50.806;4.424;2023-09-30T08:20:34;18.20;99.90
23471;DHT22;11908;50.806;4.424;2023-09-30T08:22:59;18.90;99.90
23471;DHT22;11908;50.806;4.424;2023-09-30T08:25:25;19.60;99.90
23471;DHT22;11908;50.806;4.424;2023-09-30T08:27:51;20.00;99.90
23471;DHT22;11908;50.806;4.424;2023-09-30T08:30:17;19.30;99.90
23471;DHT22;11908;50.806;4.424;2023-09-30T08:32:43;18.90;99.90
23471;DHT22;11908;50.806;4.424;2023-09-30T08:35:09;19.00;99.90
23471;DHT22;11908;50.806;4.424;2023-09-30T08:37:35;19.60;99.90
23471;DHT22;11908;50.806;4.424;2023-09-30T08:40:01;20.30;99.90
23471;DHT22;11908;50.806;4.424;2023-09-30T08:42:32;20.70;99.90
23471;DHT22;11908;50.806;4.424;2023-09-30T08:44:59;20.50;99.90
23471;DHT22;11908;50.806;4.424;2023-09-30T08:47:28;20.50;99.90
23471;DHT22;11908;50.806;4.424;2023-09-30T08:49:59;20.50;99.90
23471;DHT22;11908;50.806;4.424;2023-09-30T08:52:32;20.20;99.90
23471;DHT22;11908;50.806;4.424;2023-09-30T08:54:59;20.10;99.90
23471;DHT22;11908;50.806;4.424;2023-09-30T08:57:24;20.10;99.90
23471;DHT22;11908;50.806;4.424;2023-09-30T08:59:50;20.00;99.90
23471;DHT22;11908;50.806;4.424;2023-09-30T09:02:18;19.80;99.90
23471;DHT22;11908;50.806;4.424;2023-09-30T09:04:47;19.90;99.90
23471;DHT22;11908;50.806;4.424;2023-09-30T09:07:14;19.70;99.90
23471;DHT22;11908;50.806;4.424;2023-09-30T09:09:40;19.40;99.90
23471;DHT22;11908;50.806;4.424;2023-09-30T09:12:06;19.60;99.90
23471;DHT22;11908;50.806;4.424;2023-09-30T09:14:44;19.50;99.90
23471;DHT22;11908;50.806;4.424;2023-09-30T09:17:11;19.60;99.90
23471;DHT22;11908;50.806;4.424;2023-09-30T09:19:36;19.70;99.90
23471;DHT22;11908;50.806;4.424;2023-09-30T09:22:03;19.90;99.90
23471;DHT22;11908;50.806;4.424;2023-09-30T09:24:32;20.20;99.90
23471;DHT22;11908;50.806;4.424;2023-09-30T09:27:09;20.70;99.90
23471;DHT22;11908;50.806;4.424;2023-09-30T09:29:37;20.80;99.90
23471;DHT22;11908;50.806;4.424;2023-09-30T09:32:14;21.00;99.90
23471;DHT22;11908;50.806;4.424;2023-09-30T09:34:41;21.00;99.90
23471;DHT22;11908;50.806;4.424;2023-09-30T09:37:14;21.90;99.90
23471;DHT22;11908;50.806;4.424;2023-09-30T09:39:48;22.50;99.90
23471;DHT22;11908;50.806;4.424;2023-09-30T09:42:15;23.70;99.90
23471;DHT22;11908;50.806;4.424;2023-09-30T09:44:49;24.90;99.90
23471;DHT22;11908;50.806;4.424;2023-09-30T09:47:15;25.60;99.90
23471;DHT22;11908;50.806;4.424;2023-09-30T09:49:42;25.30;99.90
23471;DHT22;11908;50.806;4.424;2023-09-30T09:52:07;25.40;99.90
23471;DHT22;11908;50.806;4.424;2023-09-30T09:54:33;26.10;99.90
23471;DHT22;11908;50.806;4.424;2023-09-30T09:57:00;25.40;99.90
23471;DHT22;11908;50.806;4.424;2023-09-30T09:59:28;26.10;99.90
23471;DHT22;11908;50.806;4.424;2023-09-30T10:01:54;26.20;99.90
23471;DHT22;11908;50.806;4.424;2023-09-30T10:04:20;25.30;99.90
23471;DHT22;11908;50.806;4.424;2023-09-30T10:06:51;24.80;99.90
23471;DHT22;11908;50.806;4.424;2023-09-30T10:09:18;24.80;99.90
23471;DHT22;11908;50.806;4.424;2023-09-30T10:11:45;25.60;99.90
23471;DHT22;11908;50.806;4.424;2023-09-30T10:14:32;26.40;99.90
23471;DHT22;11908;50.806;4.424;2023-09-30T10:16:58;26.70;99.90
23471;DHT22;11908;50.806;4.424;2023-09-30T10:19:24;27.30;99.90
23471;DHT22;11908;50.806;4.424;2023-09-30T10:24:57;28.00;99.90
23471;DHT22;11908;50.806;4.424;2023-09-30T10:35:18;28.20;99.90
23471;DHT22;11908;50.806;4.424;2023-09-30T10:37:44;28.00;99.90
23471;DHT22;11908;50.806;4.424;2023-09-30T10:40:26;28.00;99.90
23471;DHT22;11908;50.806;4.424;2023-09-30T10:42:52;28.60;99.90
23471;DHT22;11908;50.806;4.424;2023-09-30T10:45:43;28.00;99.90
23471;DHT22;11908;50.806;4.424;2023-09-30T10:53:20;27.70;99.90
23471;DHT22;11908;50.806;4.424;2023-09-30T10:55:50;27.20;99.90
23471;DHT22;11908;50.806;4.424;2023-09-30T10:58:19;26.70;99.90
23471;DHT22;11908;50.806;4.424;2023-09-30T11:00:55;26.00;99.90
23471;DHT22;11908;50.806;4.424;2023-09-30T11:03:21;26.50;99.90
23471;DHT22;11908;50.806;4.424;2023-09-30T11:05:48;26.80;99.90
23471;DHT22;11908;50.806;4.424;2023-09-30T11:08:15;26.90;99.90
23471;DHT22;11908;50.806;4.424;2023-09-30T11:10:49;27.10;99.90
23471;DHT22;11908;50.806;4.424;2023-09-30T11:13:19;26.10;99.90
23471;DHT22;11908;50.806;4.424;2023-09-30T11:15:45;25.20;99.90
23471;DHT22;11908;50.806;4.424;2023-09-30T11:18:18;24.40;99.90
23471;DHT22;11908;50.806;4.424;2023-09-30T11:20:44;24.00;99.90
23471;DHT22;11908;50.806;4.424;2023-09-30T11:23:11;24.50;99.90
23471;DHT22;11908;50.806;4.424;2023-09-30T11:25:38;24.50;99.90
23471;DHT22;11908;50.806;4.424;2023-09-30T11:28:18;24.80;99.90
23471;DHT22;11908;50.806;4.424;2023-09-30T11:31:13;24.80;99.90
23471;DHT22;11908;50.806;4.424;2023-09-30T11:33:53;25.80;99.90
23471;DHT22;11908;50.806;4.424;2023-09-30T11:36:20;25.80;99.90
23471;DHT22;11908;50.806;4.424;2023-09-30T11:38:48;25.70;99.90
23471;DHT22;11908;50.806;4.424;2023-09-30T11:41:15;25.60;99.90
23471;DHT22;11908;50.806;4.424;2023-09-30T11:44:02;25.30;99.90
23471;DHT22;11908;50.806;4.424;2023-09-30T11:46:46;24.80;99.90
23471;DHT22;11908;50.806;4.424;2023-09-30T11:49:13;24.70;99.90
23471;DHT22;11908;50.806;4.424;2023-09-30T11:51:44;25.40;99.90
23471;DHT22;11908;50.806;4.424;2023-09-30T11:54:14;25.60;99.90
23471;DHT22;11908;50.806;4.424;2023-09-30T11:56:40;25.20;99.90
23471;DHT22;11908;50.806;4.424;2023-09-30T11:59:05;25.60;99.90
23471;DHT22;11908;50.806;4.424;2023-09-30T12:01:31;25.70;99.90
23471;DHT22;11908;50.806;4.424;2023-09-30T12:03:58;25.90;99.90
23471;DHT22;11908;50.806;4.424;2023-09-30T12:06:24;25.40;99.90
23471;DHT22;11908;50.806;4.424;2023-09-30T12:08:51;24.60;99.90
23471;DHT22;11908;50.806;4.424;2023-09-30T12:11:18;24.40;99.90
23471;DHT22;11908;50.806;4.424;2023-09-30T12:13:43;24.30;99.90
23471;DHT22;11908;50.806;4.424;2023-09-30T12:16:14;24.50;99.90
23471;DHT22;11908;50.806;4.424;2023-09-30T12:18:40;25.20;99.90
23471;DHT22;11908;50.806;4.424;2023-09-30T12:21:10;24.90;99.90
23471;DHT22;11908;50.806;4.424;2023-09-30T12:23:39;24.90;99.90
23471;DHT22;11908;50.806;4.424;2023-09-30T12:26:05;24.70;99.90
23471;DHT22;11908;50.806;4.424;2023-09-30T12:28:34;25.00;99.90
23471;DHT22;11908;50.806;4.424;2023-09-30T12:31:01;25.00;99.90
23471;DHT22;11908;50.806;4.424;2023-09-30T12:33:33;25.10;99.90
23471;DHT22;11908;50.806;4.424;2023-09-30T12:35:59;25.10;99.90
23471;DHT22;11908;50.806;4.424;2023-09-30T12:38:25;24.80;99.90
23471;DHT22;11908;50.806;4.424;2023-09-30T12:40:52;24.70;99.90
23471;DHT22;11908;50.806;4.424;2023-09-30T12:43:18;24.20;99.90
23471;DHT22;11908;50.806;4.424;2023-09-30T12:45:45;24.50;99.90
23471;DHT22;11908;50.806;4.424;2023-09-30T12:48:11;24.70;99.90
23471;DHT22;11908;50.806;4.424;2023-09-30T12:50:37;24.40;99.90
23471;DHT22;11908;50.806;4.424;2023-09-30T12:53:02;24.30;99.90
23471;DHT22;11908;50.806;4.424;2023-09-30T12:55:28;24.10;99.90
23471;DHT22;11908;50.806;4.424;2023-09-30T12:57:54;23.90;99.90
23471;DHT22;11908;50.806;4.424;2023-09-30T13:00:20;23.80;99.90
23471;DHT22;11908;50.806;4.424;2023-09-30T13:02:47;23.70;99.90
23471;DHT22;11908;50.806;4.424;2023-09-30T13:05:14;23.70;99.90
23471;DHT22;11908;50.806;4.424;2023-09-30T13:07:42;23.80;99.90
23471;DHT22;11908;50.806;4.424;2023-09-30T13:10:08;23.70;99.90
23471;DHT22;11908;50.806;4.424;2023-09-30T13:12:34;23.10;99.90
23471;DHT22;11908;50.806;4.424;2023-09-30T13:15:00;23.00;99.90
23471;DHT22;11908;50.806;4.424;2023-09-30T13:17:26;22.70;99.90
23471;DHT22;11908;50.806;4.424;2023-09-30T13:19:52;22.60;99.90
23471;DHT22;11908;50.806;4.424;2023-09-30T13:22:18;22.60;99.90
23471;DHT22;11908;50.806;4.424;2023-09-30T13:24:44;22.60;99.90
23471;DHT22;11908;50.806;4.424;2023-09-30T13:27:09;22.80;99.90
23471;DHT22;11908;50.806;4.424;2023-09-30T13:29:35;22.80;99.90
23471;DHT22;11908;50.806;4.424;2023-09-30T13:32:01;22.90;99.90
23471;DHT22;11908;50.806;4.424;2023-09-30T13:34:27;23.00;99.90
23471;DHT22;11908;50.806;4.424;2023-09-30T13:36:54;22.90;99.90
23471;DHT22;11908;50.806;4.424;2023-09-30T13:39:21;22.70;99.90
23471;DHT22;11908;50.806;4.424;2023-09-30T13:41:46;22.70;99.90
23471;DHT22;11908;50.806;4.424;2023-09-30T13:44:15;22.60;99.90
23471;DHT22;11908;50.806;4.424;2023-09-30T13:46:41;22.70;99.90
23471;DHT22;11908;50.806;4.424;2023-09-30T13:49:08;22.50;99.90
23471;DHT22;11908;50.806;4.424;2023-09-30T13:51:33;22.70;99.90
23471;DHT22;11908;50.806;4.424;2023-09-30T13:53:59;22.80;99.90
23471;DHT22;11908;50.806;4.424;2023-09-30T13:56:25;22.80;99.90
23471;DHT22;11908;50.806;4.424;2023-09-30T13:58:50;22.80;99.90
23471;DHT22;11908;50.806;4.424;2023-09-30T14:01:17;22.90;99.90
23471;DHT22;11908;50.806;4.424;2023-09-30T14:03:45;22.60;99.90
23471;DHT22;11908;50.806;4.424;2023-09-30T14:06:12;22.60;99.90
23471;DHT22;11908;50.806;4.424;2023-09-30T14:08:39;22.70;99.90
23471;DHT22;11908;50.806;4.424;2023-09-30T14:11:04;22.80;99.90
23471;DHT22;11908;50.806;4.424;2023-09-30T14:13:30;22.50;99.90
23471;DHT22;11908;50.806;4.424;2023-09-30T14:15:56;22.50;99.90
23471;DHT22;11908;50.806;4.424;2023-09-30T14:18:22;22.50;99.90
23471;DHT22;11908;50.806;4.424;2023-09-30T14:20:48;22.40;99.90
23471;DHT22;11908;50.806;4.424;2023-09-30T14:23:13;22.50;99.90
23471;DHT22;11908;50.806;4.424;2023-09-30T14:25:39;22.60;99.90
23471;DHT22;11908;50.806;4.424;2023-09-30T14:28:05;22.40;99.90
23471;DHT22;11908;50.806;4.424;2023-09-30T14:30:31;22.40;99.90
23471;DHT22;11908;50.806;4.424;2023-09-30T14:32:57;22.40;99.90
23471;DHT22;11908;50.806;4.424;2023-09-30T14:35:23;22.20;99.90
23471;DHT22;11908;50.806;4.424;2023-09-30T14:37:49;22.20;99.90
23471;DHT22;11908;50.806;4.424;2023-09-30T14:40:14;22.10;99.90
23471;DHT22;11908;50.806;4.424;2023-09-30T14:42:41;21.90;99.90
23471;DHT22;11908;50.806;4.424;2023-09-30T14:45:08;22.00;99.90
23471;DHT22;11908;50.806;4.424;2023-09-30T14:47:34;21.70;99.90
23471;DHT22;11908;50.806;4.424;2023-09-30T14:49:59;21.70;99.90
23471;DHT22;11908;50.806;4.424;2023-09-30T14:52:28;21.80;99.90
23471;DHT22;11908;50.806;4.424;2023-09-30T14:54:54;21.80;99.90
23471;DHT22;11908;50.806;4.424;2023-09-30T14:57:20;21.70;99.90
23471;DHT22;11908;50.806;4.424;2023-09-30T14:59:46;21.70;99.90
23471;DHT22;11908;50.806;4.424;2023-09-30T15:02:12;21.60;99.90
23471;DHT22;11908;50.806;4.424;2023-09-30T15:04:38;21.30;99.90
23471;DHT22;11908;50.806;4.424;2023-09-30T15:07:04;21.20;99.90
23471;DHT22;11908;50.806;4.424;2023-09-30T15:09:31;21.20;99.90
23471;DHT22;11908;50.806;4.424;2023-09-30T15:11:56;21.20;99.90
23471;DHT22;11908;50.806;4.424;2023-09-30T15:14:23;21.30;99.90
23471;DHT22;11908;50.806;4.424;2023-09-30T15:16:49;21.20;99.90
23471;DHT22;11908;50.806;4.424;2023-09-30T15:19:14;21.20;99.90
23471;DHT22;11908;50.806;4.424;2023-09-30T15:21:40;21.10;99.90
23471;DHT22;11908;50.806;4.424;2023-09-30T15:24:07;21.20;99.90
23471;DHT22;11908;50.806;4.424;2023-09-30T15:26:33;21.00;99.90
23471;DHT22;11908;50.806;4.424;2023-09-30T15:29:00;21.00;99.90
23471;DHT22;11908;50.806;4.424;2023-09-30T15:31:29;21.00;99.90
23471;DHT22;11908;50.806;4.424;2023-09-30T15:33:58;20.90;99.90
23471;DHT22;11908;50.806;4.424;2023-09-30T15:36:24;21.00;99.90
23471;DHT22;11908;50.806;4.424;2023-09-30T15:38:53;21.00;99.90
23471;DHT22;11908;50.806;4.424;2023-09-30T15:41:25;20.80;99.90
23471;DHT22;11908;50.806;4.424;2023-09-30T15:43:51;20.70;99.90
23471;DHT22;11908;50.806;4.424;2023-09-30T15:46:17;20.80;99.90